createdAt,value
2023-05-14T00:01:43.559Z,100304.09
2023-05-14T00:06:46.323Z,100289.56
2023-05-14T00:11:47.803Z,100286.34
2023-05-14T00:16:49.373Z,100292.25
2023-05-14T00:21:50.762Z,100293.41
2023-05-14T00:26:52.145Z,100272.63
2023-05-14T00:31:53.542Z,100276.63
2023-05-14T00:36:54.954Z,100263.31
2023-05-14T00:41:56.238Z,100272.00
2023-05-14T00:46:59.070Z,100260.19
2023-05-14T00:52:00.475Z,100257.44
2023-05-14T00:57:02.103Z,100271.38
2023-05-14T01:02:03.489Z,100253.47
2023-05-14T01:07:23.147Z,100266.81
2023-05-14T01:12:36.718Z,100263.50
2023-05-14T01:17:43.325Z,100258.81
2023-05-14T01:22:44.747Z,100260.84
2023-05-14T01:28:04.684Z,100241.06
2023-05-14T01:33:09.902Z,100249.56
2023-05-14T01:38:13.558Z,100265.63
2023-05-14T01:43:15.911Z,100264.28
2023-05-14T01:48:17.604Z,100259.84
2023-05-14T01:53:18.872Z,100244.63
2023-05-14T01:58:20.292Z,100248.84
2023-05-14T02:03:21.588Z,100254.91
2023-05-14T02:08:22.966Z,100232.00
2023-05-14T02:13:25.661Z,100249.31
2023-05-14T02:18:26.992Z,100255.66
2023-05-14T02:23:40.474Z,100237.13
2023-05-14T02:28:42.678Z,100247.13
2023-05-14T02:33:44.004Z,100237.00
2023-05-14T02:38:45.334Z,100238.00
2023-05-14T02:43:46.822Z,100241.81
2023-05-14T02:48:48.168Z,100222.88
2023-05-14T02:53:49.607Z,100228.53
2023-05-14T02:58:50.969Z,100229.44
2023-05-14T03:03:52.518Z,100234.03
2023-05-14T03:08:53.845Z,100228.56
2023-05-14T03:13:55.124Z,100225.09
2023-05-14T03:18:56.507Z,100224.41
2023-05-14T03:23:57.850Z,100219.19
2023-05-14T03:28:59.351Z,100213.97
2023-05-14T03:34:00.893Z,100236.50
2023-05-14T03:39:02.811Z,100213.59
2023-05-14T03:44:06.240Z,100204.31
2023-05-14T03:49:08.335Z,100224.00
2023-05-14T03:54:10.022Z,100213.91
2023-05-14T03:59:11.524Z,100222.22
2023-05-14T04:04:12.909Z,100218.53
2023-05-14T04:09:14.248Z,100231.91
2023-05-14T04:14:15.626Z,100232.50
2023-05-14T04:19:17.021Z,100226.47
2023-05-14T04:24:18.450Z,100234.19
2023-05-14T04:29:19.729Z,100220.00
2023-05-14T04:34:21.110Z,100236.88
2023-05-14T04:39:22.448Z,100229.44
2023-05-14T04:44:23.734Z,100233.47
2023-05-14T04:49:25.074Z,100234.50
2023-05-14T04:54:26.600Z,100233.31
2023-05-14T04:59:27.979Z,100249.25
2023-05-14T05:04:29.329Z,100231.75
2023-05-14T05:09:30.862Z,100238.28
2023-05-14T05:14:32.336Z,100250.34
2023-05-14T05:19:42.902Z,100243.63
2023-05-14T05:24:45.345Z,100251.06
2023-05-14T05:29:46.724Z,100231.53
2023-05-14T05:34:48.092Z,100254.25
2023-05-14T05:39:49.382Z,100248.19
2023-05-14T05:44:50.705Z,100242.25
2023-05-14T05:49:51.985Z,100252.72
2023-05-14T05:54:53.356Z,100248.00
2023-05-14T05:59:54.686Z,100253.44
2023-05-14T06:04:56.013Z,100239.56
2023-05-14T06:09:57.340Z,100254.16
2023-05-14T06:14:58.785Z,100263.50
2023-05-14T06:20:00.329Z,100246.03
2023-05-14T06:25:01.787Z,100241.50
2023-05-14T06:30:03.619Z,100240.84
2023-05-14T06:35:05.319Z,100247.94
2023-05-14T06:40:07.234Z,100234.63
2023-05-14T06:45:08.737Z,100240.16
2023-05-14T06:50:11.077Z,100241.06
2023-05-14T06:55:12.457Z,100235.06
2023-05-14T07:00:14.766Z,100247.78
2023-05-14T07:05:16.172Z,100235.19
2023-05-14T07:10:17.576Z,100234.94
2023-05-14T07:15:19.080Z,100225.28
2023-05-14T07:20:20.447Z,100216.75
2023-05-14T07:25:21.848Z,100223.59
2023-05-14T07:30:23.363Z,100187.38
2023-05-14T07:35:25.004Z,100208.94
2023-05-14T07:40:26.950Z,100207.19
2023-05-14T07:45:28.381Z,100212.25
2023-05-14T07:50:30.494Z,100208.06
2023-05-14T07:55:31.918Z,100207.25
2023-05-14T08:00:33.326Z,100204.53
2023-05-14T08:05:34.902Z,100195.94
2023-05-14T08:10:36.455Z,100177.75
2023-05-14T08:15:37.795Z,100193.84
2023-05-14T08:20:39.094Z,100192.91
2023-05-14T08:25:40.345Z,100184.28
2023-05-14T08:30:41.713Z,100179.44
2023-05-14T08:35:42.991Z,100161.53
2023-05-14T08:40:57.553Z,100153.59
2023-05-14T08:46:01.887Z,100171.69
2023-05-14T08:51:03.474Z,100158.59
2023-05-14T08:56:05.890Z,100156.44
2023-05-14T09:01:07.662Z,100156.34
2023-05-14T09:06:09.311Z,100136.13
2023-05-14T09:11:10.775Z,100158.50
2023-05-14T09:16:12.152Z,100149.88
2023-05-14T09:21:23.231Z,100142.13
2023-05-14T09:26:29.121Z,100137.66
2023-05-14T09:31:31.871Z,100144.81
2023-05-14T09:36:34.669Z,100137.38
2023-05-14T09:41:36.403Z,100134.13
2023-05-14T09:46:37.811Z,100136.09
2023-05-14T09:51:39.212Z,100147.59
2023-05-14T09:56:40.977Z,100138.53
2023-05-14T10:01:43.265Z,100136.63
2023-05-14T10:06:51.232Z,100128.16
2023-05-14T10:11:57.144Z,100139.16
2023-05-14T10:17:00.881Z,100131.91
2023-05-14T10:22:07.565Z,100132.66
2023-05-14T10:27:09.129Z,100124.38
2023-05-14T10:32:13.027Z,100114.91
2023-05-14T10:37:20.944Z,100136.44
2023-05-14T10:42:49.016Z,100127.03
2023-05-14T10:47:50.528Z,100103.84
2023-05-14T10:52:52.551Z,100115.66
2023-05-14T10:57:54.165Z,100079.19
2023-05-14T11:02:57.574Z,100089.47
2023-05-14T11:07:59.670Z,100091.13
2023-05-14T11:13:02.519Z,100088.94
2023-05-14T11:18:05.019Z,100095.84
2023-05-14T11:23:06.432Z,100094.13
2023-05-14T11:28:07.836Z,100078.13
2023-05-14T11:33:09.272Z,100082.84
2023-05-14T11:38:17.955Z,100081.50
2023-05-14T11:43:19.547Z,100067.63
2023-05-14T11:48:22.360Z,100056.06
2023-05-14T11:53:28.224Z,100056.22
2023-05-14T11:58:33.679Z,100042.44
2023-05-14T12:03:35.477Z,100051.53
2023-05-14T12:08:37.599Z,100046.44
2023-05-14T12:13:39.452Z,100034.69
2023-05-14T12:18:40.856Z,100032.34
2023-05-14T12:23:42.253Z,100020.16
2023-05-14T12:28:48.090Z,100026.69
2023-05-14T12:33:49.487Z,100012.59
2023-05-14T12:38:51.206Z,100008.06
2023-05-14T12:43:52.586Z,100013.63
2023-05-14T12:48:54.576Z,99996.56
2023-05-14T12:53:55.998Z,99987.97
2023-05-14T12:58:57.642Z,99974.66
2023-05-14T13:03:59.713Z,99973.81
2023-05-14T13:09:02.633Z,99927.72
2023-05-14T13:14:03.987Z,99959.44
2023-05-14T13:19:05.361Z,99946.31
2023-05-14T13:24:07.005Z,99915.63
2023-05-14T13:29:08.352Z,99933.38
2023-05-14T13:34:10.264Z,99951.06
2023-05-14T13:39:12.688Z,99925.59
2023-05-14T13:44:15.604Z,99922.19
2023-05-14T13:49:16.880Z,99928.34
2023-05-14T13:54:18.274Z,99920.63
2023-05-14T13:59:20.452Z,99903.09
2023-05-14T14:04:22.152Z,99903.75
2023-05-14T14:09:24.307Z,99910.03
2023-05-14T14:14:25.634Z,99883.94
2023-05-14T14:19:27.026Z,99893.75
2023-05-14T14:24:28.338Z,99867.25
2023-05-14T14:29:31.007Z,99884.19
2023-05-14T14:34:32.529Z,99878.94
2023-05-14T14:39:34.081Z,99854.78
2023-05-14T14:44:35.485Z,99868.72
2023-05-14T14:49:36.797Z,99851.41
2023-05-14T14:54:38.202Z,99858.50
2023-05-14T14:59:39.613Z,99858.09
2023-05-14T15:04:41.069Z,99840.97
2023-05-14T15:09:42.437Z,99831.78
2023-05-14T15:14:43.802Z,99829.28
2023-05-14T15:19:45.450Z,99839.69
2023-05-14T15:24:47.162Z,99843.88
2023-05-14T15:29:48.490Z,99833.88
2023-05-14T15:34:49.790Z,99843.00
2023-05-14T15:39:51.520Z,99838.94
2023-05-14T15:44:52.861Z,99867.88
2023-05-14T15:49:54.514Z,99870.94
2023-05-14T15:54:57.310Z,99868.34
2023-05-14T15:59:58.624Z,99862.81
2023-05-14T16:05:00.042Z,99866.53
2023-05-14T16:10:01.384Z,99857.63
2023-05-14T16:15:03.140Z,99865.06
2023-05-14T16:20:05.254Z,99847.41
2023-05-14T16:25:07.025Z,99843.28
2023-05-14T16:30:08.816Z,99839.50
2023-05-14T16:35:11.064Z,99835.81
2023-05-14T16:40:12.934Z,99838.50
2023-05-14T16:45:14.450Z,99809.97
2023-05-14T16:50:15.875Z,99833.75
2023-05-14T16:55:19.328Z,99831.41
2023-05-14T17:00:21.032Z,99833.47
2023-05-14T17:05:22.584Z,99845.28
2023-05-14T17:10:25.182Z,99850.47
2023-05-14T17:15:26.635Z,99849.91
2023-05-14T17:20:29.027Z,99845.00
2023-05-14T17:25:30.380Z,99842.88
2023-05-14T17:30:31.994Z,99833.66
2023-05-14T17:35:36.025Z,99840.19
2023-05-14T17:40:37.410Z,99831.25
2023-05-14T17:45:52.524Z,99839.34
2023-05-14T17:50:55.166Z,99844.03
2023-05-14T17:55:56.481Z,99853.28
2023-05-14T18:00:57.800Z,99857.38
2023-05-14T18:05:59.513Z,99852.75
2023-05-14T18:11:00.989Z,99866.75
2023-05-14T18:16:02.387Z,99849.19
2023-05-14T18:21:03.803Z,99859.50
2023-05-14T18:26:05.311Z,99849.91
2023-05-14T18:31:06.737Z,99873.06
2023-05-14T18:36:08.458Z,99872.16
2023-05-14T18:41:09.825Z,99870.44
2023-05-14T18:46:12.276Z,99868.56
2023-05-14T18:51:13.760Z,99871.41
2023-05-14T18:56:15.112Z,99896.19
2023-05-14T19:01:16.593Z,99882.91
2023-05-14T19:06:18.093Z,99894.16
2023-05-14T19:11:19.939Z,99903.75
2023-05-14T19:16:21.705Z,99909.47
2023-05-14T19:21:23.079Z,99904.25
2023-05-14T19:26:24.746Z,99915.69
2023-05-14T19:31:27.021Z,99923.03
2023-05-14T19:36:28.840Z,99919.34
2023-05-14T19:41:30.248Z,99916.13
2023-05-14T19:46:31.755Z,99904.38
2023-05-14T19:51:33.274Z,99897.34
2023-05-14T19:56:34.699Z,99905.81
2023-05-14T20:01:36.099Z,99918.06
2023-05-14T20:06:38.154Z,99921.56
2023-05-14T20:11:39.605Z,99921.16
2023-05-14T20:16:41.647Z,99910.09
2023-05-14T20:21:43.118Z,99904.75
2023-05-14T20:26:44.592Z,99913.50
2023-05-14T20:31:45.938Z,99907.44
2023-05-14T20:36:47.633Z,99904.28
2023-05-14T20:41:49.013Z,99887.75
2023-05-14T20:46:50.499Z,99917.38
2023-05-14T20:51:51.862Z,99906.63
2023-05-14T20:56:53.171Z,99898.44
2023-05-14T21:01:54.584Z,99889.09
2023-05-14T21:06:56.669Z,99903.81
2023-05-14T21:11:57.954Z,99883.72
2023-05-14T21:16:59.310Z,99880.50
2023-05-14T21:22:00.929Z,99887.75
2023-05-14T21:27:02.257Z,99896.81
2023-05-14T21:32:03.818Z,99883.72
2023-05-14T21:37:05.517Z,99887.13
2023-05-14T21:42:07.337Z,99876.22
2023-05-14T21:47:08.727Z,99869.69
2023-05-14T21:52:10.787Z,99888.78
2023-05-14T21:57:12.238Z,99871.53
2023-05-14T22:02:13.729Z,99873.00
2023-05-14T22:07:15.263Z,99847.88
2023-05-14T22:12:16.606Z,99866.66
2023-05-14T22:17:17.989Z,99863.34
2023-05-14T22:22:19.377Z,99842.25
2023-05-14T22:27:20.662Z,99846.75
2023-05-14T22:32:22.085Z,99863.84
2023-05-14T22:37:23.512Z,99856.97
2023-05-14T22:42:24.968Z,99858.00
2023-05-14T22:47:26.450Z,99858.00
2023-05-14T22:52:27.843Z,99847.28
2023-05-14T22:57:29.307Z,99852.50
2023-05-14T23:02:30.715Z,99828.19
2023-05-14T23:07:32.359Z,99827.31
2023-05-14T23:12:33.798Z,99846.97
2023-05-14T23:17:35.176Z,99834.72
2023-05-14T23:22:36.464Z,99808.25
2023-05-14T23:27:38.031Z,99814.41
2023-05-14T23:32:39.770Z,99824.84
2023-05-14T23:37:46.821Z,99819.16
2023-05-14T23:42:48.145Z,99795.31
2023-05-14T23:47:49.539Z,99789.28
2023-05-14T23:52:54.801Z,99800.69
2023-05-14T23:57:56.373Z,99786.25
